createdAt,value
2022-10-26T00:00:09.899Z,9.00
2022-10-26T00:02:36.578Z,9.00
2022-10-26T00:05:03.280Z,9.00
2022-10-26T00:07:30.150Z,9.10
2022-10-26T00:09:56.824Z,9.10
2022-10-26T00:12:23.567Z,9.10
2022-10-26T00:14:50.169Z,9.10
2022-10-26T00:17:16.828Z,9.10
2022-10-26T00:19:43.455Z,9.20
2022-10-26T00:22:10.097Z,9.20
2022-10-26T00:24:36.717Z,9.10
2022-10-26T00:27:03.403Z,9.10
2022-10-26T00:29:30.067Z,9.10
2022-10-26T00:31:56.728Z,9.10
2022-10-26T00:34:23.382Z,9.10
2022-10-26T00:36:50.017Z,9.10
2022-10-26T00:39:16.678Z,8.90
2022-10-26T00:41:43.596Z,8.90
2022-10-26T00:44:31.261Z,9.00
2022-10-26T00:46:59.909Z,9.00
2022-10-26T00:49:26.591Z,9.10
2022-10-26T00:51:53.604Z,9.20
2022-10-26T00:54:20.814Z,9.20
2022-10-26T00:56:49.533Z,9.20
2022-10-26T00:59:16.610Z,9.20
2022-10-26T01:01:44.817Z,9.30
2022-10-26T01:04:12.949Z,9.30
2022-10-26T01:06:41.373Z,9.30
2022-10-26T01:09:08.136Z,9.40
2022-10-26T01:11:34.833Z,9.50
2022-10-26T01:14:03.263Z,9.60
2022-10-26T01:16:38.368Z,9.60
2022-10-26T01:19:19.859Z,9.60
2022-10-26T01:21:46.499Z,9.60
2022-10-26T01:24:36.157Z,9.60
2022-10-26T01:27:21.620Z,9.60
2022-10-26T01:29:48.409Z,9.70
2022-10-26T01:32:18.537Z,9.70
2022-10-26T01:34:48.894Z,9.70
2022-10-26T01:37:20.087Z,9.80
2022-10-26T01:40:00.259Z,9.80
2022-10-26T01:42:28.446Z,9.80
2022-10-26T01:45:01.084Z,9.80
2022-10-26T01:47:28.896Z,9.90
2022-10-26T01:49:56.466Z,9.90
2022-10-26T01:52:23.247Z,9.90
2022-10-26T01:54:49.907Z,9.90
2022-10-26T01:57:18.536Z,9.90
2022-10-26T02:00:02.470Z,9.90
2022-10-26T02:02:44.280Z,10.00
2022-10-26T02:05:10.899Z,10.10
2022-10-26T02:07:57.501Z,10.10
2022-10-26T02:10:39.509Z,10.20
2022-10-26T02:13:12.440Z,10.20
2022-10-26T02:16:00.775Z,10.20
2022-10-26T02:18:32.244Z,10.20
2022-10-26T02:21:03.294Z,10.20
2022-10-26T02:23:31.604Z,10.20
2022-10-26T02:25:59.744Z,10.30
2022-10-26T02:28:30.898Z,10.30
2022-10-26T02:30:59.415Z,10.30
2022-10-26T02:33:26.571Z,10.40
2022-10-26T02:35:54.374Z,10.40
2022-10-26T02:38:21.387Z,10.40
2022-10-26T02:40:49.809Z,10.40
2022-10-26T02:43:22.277Z,10.40
2022-10-26T02:45:57.763Z,10.40
2022-10-26T02:48:24.491Z,10.50
2022-10-26T02:51:14.451Z,10.50
2022-10-26T02:53:46.510Z,10.60
2022-10-26T02:56:20.295Z,10.70
2022-10-26T02:58:50.129Z,10.70
2022-10-26T03:01:16.877Z,10.70
2022-10-26T03:03:43.633Z,10.80
2022-10-26T03:06:10.346Z,10.80
2022-10-26T03:08:36.957Z,10.80
2022-10-26T03:11:03.695Z,10.90
2022-10-26T03:13:30.335Z,10.90
2022-10-26T03:15:57.741Z,10.90
2022-10-26T03:18:24.387Z,11.00
2022-10-26T03:20:51.048Z,11.00
2022-10-26T03:23:17.690Z,11.00
2022-10-26T03:25:44.301Z,11.00
2022-10-26T03:28:11.013Z,11.10
2022-10-26T03:30:37.715Z,11.10
2022-10-26T03:33:04.395Z,11.10
2022-10-26T03:35:31.085Z,11.10
2022-10-26T03:37:58.010Z,11.10
2022-10-26T03:40:24.745Z,11.10
2022-10-26T03:42:51.563Z,11.10
2022-10-26T03:45:18.449Z,11.00
2022-10-26T03:47:46.156Z,11.00
2022-10-26T03:50:13.660Z,10.90
2022-10-26T03:52:40.587Z,10.90
2022-10-26T03:55:07.775Z,11.00
2022-10-26T03:57:34.415Z,11.00
2022-10-26T04:00:01.255Z,11.10
2022-10-26T04:02:27.926Z,11.00
2022-10-26T04:04:54.615Z,11.00
2022-10-26T04:07:21.320Z,11.00
2022-10-26T04:09:47.955Z,11.00
2022-10-26T04:12:14.619Z,11.00
2022-10-26T04:14:41.317Z,10.90
2022-10-26T04:17:07.999Z,11.00
2022-10-26T04:19:34.592Z,11.00
2022-10-26T04:22:01.330Z,11.00
2022-10-26T04:24:28.010Z,11.00
2022-10-26T04:26:54.670Z,11.00
2022-10-26T04:29:21.338Z,11.10
2022-10-26T04:31:48.037Z,11.10
2022-10-26T04:34:14.833Z,11.10
2022-10-26T04:36:41.505Z,11.10
2022-10-26T04:39:08.169Z,11.10
2022-10-26T04:41:34.823Z,11.10
2022-10-26T04:44:01.466Z,11.10
2022-10-26T04:46:28.281Z,11.10
2022-10-26T04:48:54.881Z,11.00
2022-10-26T04:51:21.545Z,11.00
2022-10-26T04:53:48.217Z,11.00
2022-10-26T04:56:14.889Z,11.00
2022-10-26T04:58:41.523Z,11.00
2022-10-26T05:01:08.317Z,11.00
2022-10-26T05:03:35.126Z,11.00
2022-10-26T05:06:01.745Z,11.00
2022-10-26T05:08:29.856Z,11.00
2022-10-26T05:10:56.483Z,11.10
2022-10-26T05:13:23.425Z,11.10
2022-10-26T05:15:52.847Z,11.10
2022-10-26T05:18:19.484Z,11.10
2022-10-26T05:20:46.470Z,11.10
2022-10-26T05:23:13.915Z,11.10
2022-10-26T05:25:40.612Z,11.10
2022-10-26T05:28:09.662Z,11.10
2022-10-26T05:30:36.478Z,11.10
2022-10-26T05:33:03.601Z,11.10
2022-10-26T05:35:30.349Z,11.10
2022-10-26T05:37:57.069Z,11.10
2022-10-26T05:40:24.059Z,11.10
2022-10-26T05:42:51.450Z,11.10
2022-10-26T05:45:18.856Z,11.10
2022-10-26T05:47:46.352Z,11.10
2022-10-26T05:50:13.581Z,11.10
2022-10-26T05:52:47.274Z,11.20
2022-10-26T05:55:15.138Z,11.20
2022-10-26T05:57:42.170Z,11.20
2022-10-26T06:00:10.401Z,11.10
2022-10-26T06:02:46.241Z,11.20
2022-10-26T06:05:15.884Z,11.20
2022-10-26T06:07:42.757Z,11.10
2022-10-26T06:10:10.889Z,11.10
2022-10-26T06:12:37.667Z,11.10
2022-10-26T06:15:04.917Z,11.10
2022-10-26T06:17:53.849Z,11.10
2022-10-26T06:20:39.337Z,11.10
2022-10-26T06:23:24.827Z,11.10
2022-10-26T06:25:51.416Z,11.20
2022-10-26T06:31:02.167Z,11.30
2022-10-26T06:33:30.154Z,11.30
2022-10-26T06:36:04.766Z,11.20
2022-10-26T06:38:33.309Z,11.30
2022-10-26T06:41:00.036Z,11.30
2022-10-26T06:43:31.472Z,11.30
2022-10-26T06:46:07.361Z,11.40
2022-10-26T06:48:37.224Z,11.40
2022-10-26T06:51:03.986Z,11.60
2022-10-26T06:53:36.041Z,11.60
2022-10-26T06:56:02.912Z,11.70
2022-10-26T06:58:31.085Z,11.70
2022-10-26T07:00:57.841Z,11.60
2022-10-26T07:03:24.629Z,11.60
2022-10-26T07:05:51.331Z,11.60
2022-10-26T07:08:18.281Z,11.60
2022-10-26T07:10:46.169Z,11.60
2022-10-26T07:13:12.815Z,11.70
2022-10-26T07:15:39.738Z,11.70
2022-10-26T07:18:07.476Z,11.80
2022-10-26T07:20:40.805Z,11.90
2022-10-26T07:23:08.411Z,11.90
2022-10-26T07:25:35.102Z,12.00
2022-10-26T07:28:01.839Z,12.00
2022-10-26T07:30:29.369Z,12.10
2022-10-26T07:33:05.590Z,12.10
2022-10-26T07:35:35.284Z,12.20
2022-10-26T07:38:02.226Z,12.20
2022-10-26T07:40:29.375Z,12.30
2022-10-26T07:42:56.995Z,12.30
2022-10-26T07:45:24.054Z,12.30
2022-10-26T07:47:50.781Z,12.40
2022-10-26T07:50:17.414Z,12.40
2022-10-26T07:52:44.101Z,12.40
2022-10-26T07:55:11.588Z,12.40
2022-10-26T07:57:38.748Z,12.50
2022-10-26T08:00:06.706Z,12.50
2022-10-26T08:02:33.329Z,12.60
2022-10-26T08:05:00.005Z,12.60
2022-10-26T08:07:26.784Z,12.70
2022-10-26T08:09:53.508Z,12.70
2022-10-26T08:12:20.466Z,12.80
2022-10-26T08:14:47.073Z,12.80
2022-10-26T08:17:13.788Z,12.80
2022-10-26T08:19:40.461Z,12.80
2022-10-26T08:22:07.235Z,12.90
2022-10-26T08:24:34.298Z,12.90
2022-10-26T08:27:01.162Z,12.90
2022-10-26T08:29:27.846Z,13.00
2022-10-26T08:31:54.498Z,13.10
2022-10-26T08:34:21.288Z,13.30
2022-10-26T08:36:48.029Z,13.40
2022-10-26T08:39:14.706Z,13.40
2022-10-26T08:41:42.972Z,13.50
2022-10-26T08:44:24.446Z,13.50
2022-10-26T08:47:20.558Z,13.70
2022-10-26T08:50:00.406Z,13.80
2022-10-26T08:52:30.640Z,14.00
2022-10-26T08:55:00.141Z,14.00
2022-10-26T08:57:38.224Z,14.10
2022-10-26T09:00:05.093Z,14.10
2022-10-26T09:02:31.881Z,14.20
2022-10-26T09:04:59.408Z,14.30
2022-10-26T09:07:38.074Z,14.30
2022-10-26T09:10:10.711Z,14.30
2022-10-26T09:12:43.603Z,14.40
2022-10-26T09:15:13.262Z,14.30
2022-10-26T09:17:48.820Z,14.30
2022-10-26T09:20:15.432Z,14.30
2022-10-26T09:23:01.866Z,14.30
2022-10-26T09:25:33.455Z,14.20
2022-10-26T09:28:04.938Z,14.30
2022-10-26T09:30:31.771Z,14.30
2022-10-26T09:33:14.990Z,14.30
2022-10-26T09:35:52.894Z,14.40
2022-10-26T09:38:22.729Z,14.50
2022-10-26T09:41:08.137Z,14.60
2022-10-26T09:43:34.862Z,14.70
2022-10-26T09:46:01.572Z,14.90
2022-10-26T09:48:35.880Z,15.00
2022-10-26T09:51:04.708Z,15.10
2022-10-26T09:53:32.103Z,15.30
2022-10-26T09:56:06.611Z,15.50
2022-10-26T09:58:36.996Z,15.70
2022-10-26T10:01:03.918Z,15.90
2022-10-26T10:03:31.990Z,16.00
2022-10-26T10:06:15.806Z,16.10
2022-10-26T10:08:42.906Z,16.10
2022-10-26T10:11:11.280Z,16.20
2022-10-26T10:13:45.449Z,16.20
2022-10-26T10:16:22.829Z,16.30
2022-10-26T10:18:53.978Z,16.30
2022-10-26T10:21:20.639Z,16.30
2022-10-26T10:23:54.420Z,16.20
2022-10-26T10:26:21.190Z,16.10
2022-10-26T10:28:56.846Z,16.00
2022-10-26T10:31:27.862Z,16.00
2022-10-26T10:33:54.614Z,16.10
2022-10-26T10:36:25.944Z,16.20
2022-10-26T10:38:53.433Z,16.30
2022-10-26T10:41:32.657Z,16.30
2022-10-26T10:44:22.679Z,16.40
2022-10-26T10:46:49.397Z,16.40
2022-10-26T10:49:21.453Z,16.50
2022-10-26T10:51:48.370Z,16.50
2022-10-26T10:54:22.409Z,16.60
2022-10-26T10:56:51.097Z,16.80
2022-10-26T10:59:33.037Z,16.90
2022-10-26T11:02:06.116Z,17.10
2022-10-26T11:04:43.774Z,17.30
2022-10-26T11:07:10.957Z,17.50
2022-10-26T11:09:39.651Z,17.60
2022-10-26T11:12:13.575Z,17.60
2022-10-26T11:14:49.713Z,17.60
2022-10-26T11:17:22.522Z,17.60
2022-10-26T11:19:51.880Z,17.60
2022-10-26T11:22:22.360Z,17.60
2022-10-26T11:25:21.594Z,17.50
2022-10-26T11:27:51.928Z,17.60
2022-10-26T11:30:23.007Z,17.50
2022-10-26T11:33:10.126Z,17.50
2022-10-26T11:35:51.530Z,17.50
2022-10-26T11:38:39.329Z,17.50
2022-10-26T11:41:25.791Z,17.40
2022-10-26T11:44:11.277Z,17.30
2022-10-26T11:46:43.236Z,17.30
2022-10-26T11:49:29.675Z,17.20
2022-10-26T11:52:01.996Z,17.20
2022-10-26T11:54:31.046Z,17.20
2022-10-26T11:56:58.386Z,17.20
2022-10-26T11:59:37.307Z,17.10
2022-10-26T12:02:13.398Z,17.10
2022-10-26T12:04:41.803Z,17.10
2022-10-26T12:07:11.187Z,17.10
2022-10-26T12:09:38.893Z,17.10
2022-10-26T12:12:28.924Z,17.10
2022-10-26T12:14:57.495Z,17.10
2022-10-26T12:17:32.064Z,17.00
2022-10-26T12:20:04.707Z,17.10
2022-10-26T12:22:33.479Z,17.00
2022-10-26T12:25:15.687Z,17.10
2022-10-26T12:27:42.475Z,17.10
2022-10-26T12:30:12.203Z,17.10
2022-10-26T12:32:41.539Z,17.20
2022-10-26T12:35:29.113Z,17.30
2022-10-26T12:37:56.058Z,17.30
2022-10-26T12:40:35.083Z,17.40
2022-10-26T12:43:24.825Z,17.40
2022-10-26T12:46:10.399Z,17.40
2022-10-26T12:48:40.148Z,17.30
2022-10-26T12:51:18.970Z,17.20
2022-10-26T12:54:09.034Z,17.10
2022-10-26T12:56:47.836Z,17.00
2022-10-26T12:59:17.521Z,16.90
2022-10-26T13:04:39.480Z,16.80
2022-10-26T13:07:18.311Z,16.80
2022-10-26T13:09:46.383Z,16.80
2022-10-26T13:12:13.177Z,16.70
2022-10-26T13:14:49.624Z,16.80
2022-10-26T13:17:26.925Z,16.80
2022-10-26T13:20:04.593Z,16.90
2022-10-26T13:22:31.959Z,16.90
2022-10-26T13:25:01.755Z,16.90
2022-10-26T13:27:34.627Z,17.00
2022-10-26T13:30:04.319Z,17.00
2022-10-26T13:32:33.388Z,17.00
2022-10-26T13:35:01.290Z,17.00
2022-10-26T13:37:30.110Z,16.90
2022-10-26T13:39:59.652Z,16.80
2022-10-26T13:42:27.518Z,16.80
2022-10-26T13:44:54.194Z,16.80
2022-10-26T13:47:23.886Z,16.70
2022-10-26T13:49:54.526Z,16.80
2022-10-26T13:52:30.279Z,16.80
2022-10-26T13:55:02.965Z,16.80
2022-10-26T13:57:32.724Z,16.80
2022-10-26T14:00:03.141Z,16.80
2022-10-26T14:02:31.051Z,16.70
2022-10-26T14:05:01.651Z,16.70
2022-10-26T14:07:37.473Z,16.60
2022-10-26T14:10:04.561Z,16.50
2022-10-26T14:12:32.068Z,16.50
2022-10-26T14:15:05.723Z,16.50
2022-10-26T14:17:33.134Z,16.40
2022-10-26T14:19:59.982Z,16.40
2022-10-26T14:22:27.899Z,16.40
2022-10-26T14:27:24.626Z,16.30
2022-10-26T14:32:39.096Z,16.30
2022-10-26T14:35:06.020Z,16.20
2022-10-26T14:37:38.337Z,16.30
2022-10-26T14:40:05.770Z,16.30
2022-10-26T14:42:34.552Z,16.30
2022-10-26T14:45:01.853Z,16.40
2022-10-26T14:47:35.552Z,16.40
2022-10-26T14:50:03.166Z,16.40
2022-10-26T14:52:34.354Z,16.50
2022-10-26T14:55:02.752Z,16.50
2022-10-26T14:57:31.051Z,16.50
2022-10-26T15:00:24.185Z,16.50
2022-10-26T15:05:20.307Z,16.50
2022-10-26T15:07:47.386Z,16.50
2022-10-26T15:10:33.069Z,16.50
2022-10-26T15:13:07.928Z,16.50
2022-10-26T15:15:37.501Z,16.50
2022-10-26T15:18:14.011Z,16.50
2022-10-26T15:20:46.853Z,16.50
2022-10-26T15:23:14.549Z,16.40
2022-10-26T15:25:42.702Z,16.40
2022-10-26T15:28:24.659Z,16.20
2022-10-26T15:31:10.150Z,16.20
2022-10-26T15:33:38.277Z,16.10
2022-10-26T15:36:07.962Z,16.00
2022-10-26T15:38:35.008Z,16.00
2022-10-26T15:41:03.019Z,15.90
2022-10-26T15:43:29.645Z,15.80
2022-10-26T15:45:56.521Z,15.80
2022-10-26T15:48:25.621Z,15.70
2022-10-26T15:50:52.454Z,15.70
2022-10-26T15:53:20.911Z,15.70
2022-10-26T15:55:48.521Z,15.60
2022-10-26T15:58:15.418Z,15.60
2022-10-26T16:00:42.197Z,15.50
2022-10-26T16:03:13.395Z,15.50
2022-10-26T16:05:40.352Z,15.50
2022-10-26T16:08:08.370Z,15.50
2022-10-26T16:10:35.030Z,15.40
2022-10-26T16:13:01.652Z,15.40
2022-10-26T16:15:28.372Z,15.30
2022-10-26T16:17:55.093Z,15.30
2022-10-26T16:20:23.331Z,15.30
2022-10-26T16:22:51.055Z,15.30
2022-10-26T16:25:19.925Z,15.20
2022-10-26T16:27:47.282Z,15.20
2022-10-26T16:30:14.071Z,15.10
2022-10-26T16:32:40.986Z,15.10
2022-10-26T16:35:07.962Z,15.10
2022-10-26T16:37:34.802Z,15.10
2022-10-26T16:40:01.594Z,15.10
2022-10-26T16:42:30.207Z,15.00
2022-10-26T16:45:00.102Z,15.00
2022-10-26T16:47:29.409Z,15.00
2022-10-26T16:49:58.491Z,14.90
2022-10-26T16:52:25.158Z,14.90
2022-10-26T16:54:51.994Z,14.80
2022-10-26T16:57:18.603Z,14.80
2022-10-26T16:59:45.335Z,14.80
2022-10-26T17:02:13.926Z,14.80
2022-10-26T17:04:40.782Z,14.80
2022-10-26T17:07:07.457Z,14.70
2022-10-26T17:09:34.409Z,14.80
2022-10-26T17:12:02.254Z,14.70
2022-10-26T17:14:29.147Z,14.70
2022-10-26T17:16:56.254Z,14.70
2022-10-26T17:19:23.088Z,14.60
2022-10-26T17:21:49.830Z,14.60
2022-10-26T17:24:16.467Z,14.60
2022-10-26T17:26:43.315Z,14.60
2022-10-26T17:29:12.654Z,14.50
2022-10-26T17:31:39.455Z,14.50
2022-10-26T17:34:06.098Z,14.50
2022-10-26T17:36:32.863Z,14.50
2022-10-26T17:39:00.917Z,14.40
2022-10-26T17:41:28.148Z,14.30
2022-10-26T17:43:54.854Z,14.30
2022-10-26T17:46:25.625Z,14.30
2022-10-26T17:48:59.863Z,14.20
2022-10-26T17:51:27.783Z,14.20
2022-10-26T17:53:55.350Z,14.20
2022-10-26T17:56:23.360Z,14.20
2022-10-26T17:58:54.204Z,14.10
2022-10-26T18:01:21.541Z,14.10
2022-10-26T18:03:48.518Z,14.00
2022-10-26T18:06:17.117Z,14.00
2022-10-26T18:08:44.490Z,13.90
2022-10-26T18:11:19.038Z,13.90
2022-10-26T18:13:47.376Z,13.80
2022-10-26T18:16:18.074Z,13.80
2022-10-26T18:18:51.750Z,13.70
2022-10-26T18:21:19.667Z,13.70
2022-10-26T18:23:46.406Z,13.70
2022-10-26T18:26:17.843Z,13.70
2022-10-26T18:28:45.197Z,13.70
2022-10-26T18:31:13.218Z,13.70
2022-10-26T18:33:40.368Z,13.70
2022-10-26T18:36:11.058Z,13.70
2022-10-26T18:38:38.393Z,13.70
2022-10-26T18:41:05.583Z,13.70
2022-10-26T18:43:32.289Z,13.80
2022-10-26T18:46:05.889Z,13.80
2022-10-26T18:48:32.957Z,13.80
2022-10-26T18:51:06.653Z,13.70
2022-10-26T18:53:34.300Z,13.70
2022-10-26T18:56:02.042Z,13.70
2022-10-26T18:58:29.816Z,13.70
2022-10-26T19:01:05.710Z,13.80
2022-10-26T19:03:32.507Z,13.70
2022-10-26T19:05:59.247Z,13.70
2022-10-26T19:08:27.928Z,13.70
2022-10-26T19:10:54.881Z,13.70
2022-10-26T19:13:24.618Z,13.70
2022-10-26T19:15:59.192Z,13.70
2022-10-26T19:18:25.947Z,13.70
2022-10-26T19:20:57.483Z,13.70
2022-10-26T19:23:24.110Z,13.70
2022-10-26T19:25:54.713Z,13.70
2022-10-26T19:28:21.376Z,13.70
2022-10-26T19:30:48.163Z,13.70
2022-10-26T19:33:14.956Z,13.60
2022-10-26T19:35:41.748Z,13.60
2022-10-26T19:38:08.630Z,13.50
2022-10-26T19:40:35.708Z,13.50
2022-10-26T19:43:02.516Z,13.50
2022-10-26T19:45:29.223Z,13.50
2022-10-26T19:47:55.860Z,13.50
2022-10-26T19:50:22.506Z,13.50
2022-10-26T19:52:49.681Z,13.50
2022-10-26T19:55:16.815Z,13.50
2022-10-26T19:57:43.464Z,13.40
2022-10-26T20:00:10.306Z,13.40
2022-10-26T20:02:37.048Z,13.30
2022-10-26T20:05:03.827Z,13.30
2022-10-26T20:07:30.500Z,13.30
2022-10-26T20:09:57.254Z,13.30
2022-10-26T20:12:24.147Z,13.30
2022-10-26T20:14:50.906Z,13.30
2022-10-26T20:17:17.761Z,13.30
2022-10-26T20:19:44.438Z,13.30
2022-10-26T20:22:11.094Z,13.30
2022-10-26T20:24:37.724Z,13.30
2022-10-26T20:27:04.489Z,13.30
2022-10-26T20:29:31.472Z,13.30
2022-10-26T20:32:00.029Z,13.30
2022-10-26T20:34:26.889Z,13.40
2022-10-26T20:36:53.537Z,13.30
2022-10-26T20:39:20.513Z,13.40
2022-10-26T20:41:47.368Z,13.30
2022-10-26T20:44:17.575Z,13.30
2022-10-26T20:46:44.423Z,13.30
2022-10-26T20:49:11.287Z,13.30
2022-10-26T20:52:02.640Z,13.20
2022-10-26T20:54:35.206Z,13.20
2022-10-26T20:57:02.440Z,13.20
2022-10-26T20:59:36.143Z,13.10
2022-10-26T21:02:02.874Z,13.10
2022-10-26T21:04:29.775Z,13.10
2022-10-26T21:06:56.420Z,13.10
2022-10-26T21:09:23.650Z,13.10
2022-10-26T21:11:50.454Z,13.10
2022-10-26T21:14:17.131Z,13.20
2022-10-26T21:16:43.797Z,13.20
2022-10-26T21:19:10.692Z,13.20
2022-10-26T21:21:37.471Z,13.20
2022-10-26T21:24:04.392Z,13.30
2022-10-26T21:26:31.114Z,13.20
2022-10-26T21:28:57.882Z,13.20
2022-10-26T21:31:24.534Z,13.10
2022-10-26T21:33:51.186Z,13.00
2022-10-26T21:36:17.949Z,13.00
2022-10-26T21:38:45.856Z,12.90
2022-10-26T21:41:15.605Z,12.90
2022-10-26T21:43:43.267Z,12.80
2022-10-26T21:46:10.764Z,12.80
2022-10-26T21:48:38.007Z,12.70
2022-10-26T21:51:05.657Z,12.60
2022-10-26T21:53:32.542Z,12.60
2022-10-26T21:56:03.353Z,12.60
2022-10-26T21:58:30.093Z,12.50
2022-10-26T22:01:13.439Z,12.50
2022-10-26T22:03:40.960Z,12.40
2022-10-26T22:06:08.093Z,12.40
2022-10-26T22:08:35.013Z,12.40
2022-10-26T22:11:15.382Z,12.30
2022-10-26T22:13:45.564Z,12.30
2022-10-26T22:16:12.372Z,12.30
2022-10-26T22:18:40.254Z,12.20
2022-10-26T22:21:07.041Z,12.20
2022-10-26T22:23:34.758Z,12.20
2022-10-26T22:26:12.712Z,12.20
2022-10-26T22:28:42.679Z,12.20
2022-10-26T22:31:14.176Z,12.10
2022-10-26T22:33:41.221Z,12.10
2022-10-26T22:36:14.788Z,12.10
2022-10-26T22:38:41.821Z,12.00
2022-10-26T22:41:09.447Z,12.00
2022-10-26T22:43:36.423Z,12.00
2022-10-26T22:46:03.237Z,12.00
2022-10-26T22:48:29.998Z,12.00
2022-10-26T22:50:57.009Z,12.00
2022-10-26T22:53:23.847Z,11.90
2022-10-26T22:55:50.905Z,11.90
2022-10-26T22:58:17.856Z,11.80
2022-10-26T23:00:44.809Z,11.80
2022-10-26T23:03:11.625Z,11.80
2022-10-26T23:05:44.750Z,11.70
2022-10-26T23:08:11.419Z,11.70
2022-10-26T23:10:38.641Z,11.70
2022-10-26T23:13:05.357Z,11.60
2022-10-26T23:15:32.019Z,11.50
2022-10-26T23:17:58.671Z,11.50
2022-10-26T23:20:25.304Z,11.40
2022-10-26T23:22:53.505Z,11.40
2022-10-26T23:25:20.400Z,11.40
2022-10-26T23:27:47.080Z,11.40
2022-10-26T23:30:13.764Z,11.40
2022-10-26T23:32:40.603Z,11.30
2022-10-26T23:35:07.452Z,11.30
2022-10-26T23:37:34.112Z,11.20
2022-10-26T23:40:00.850Z,11.20
2022-10-26T23:42:27.651Z,11.20
2022-10-26T23:44:54.380Z,11.20
2022-10-26T23:47:21.061Z,11.20
2022-10-26T23:49:49.262Z,11.10
2022-10-26T23:52:16.020Z,11.10
2022-10-26T23:54:42.713Z,11.10
2022-10-26T23:57:09.496Z,11.00
2022-10-26T23:59:36.303Z,11.10
